Time;durP1;ratioP1;P1;durP2;ratioP2;P2;SDS_P1;SDS_P2;PMS_P1;PMS_P2;Temp;Humidity;BMP_temperature;BMP_pressure;BME280_temperature;BME280_humidity;BME280_pressure;Samples;Min_cycle;Max_cycle;Signal;HPM_P1;HPM_P2
2022/12/11 00:01:59;;;;;;;119.57;42.43;;;2.30;73.40;;;;;;5075309;28;20419;-75
2022/12/11 00:04:25;;;;;;;114.45;41.47;;;2.30;74.20;;;;;;5075111;28;20379;-74
2022/12/11 00:06:52;;;;;;;112.25;41.67;;;2.20;74.70;;;;;;5073461;28;20807;-73
2022/12/11 00:09:19;;;;;;;114.07;42.95;;;2.10;75.30;;;;;;5072536;28;20406;-74
2022/12/11 00:11:46;;;;;;;127.33;45.13;;;2.00;77.40;;;;;;5072722;28;20760;-74
2022/12/11 00:14:13;;;;;;;109.50;42.47;;;2.10;77.50;;;;;;5076509;28;20375;-75
2022/12/11 00:16:39;;;;;;;127.35;45.53;;;2.10;76.70;;;;;;5074125;28;20391;-73
2022/12/11 00:19:04;;;;;;;124.85;44.60;;;2.00;78.10;;;;;;5073818;28;20880;-76
2022/12/11 00:21:30;;;;;;;115.70;42.22;;;2.00;79.10;;;;;;5074314;28;20417;-74
2022/12/11 00:23:56;;;;;;;97.70;37.13;;;2.10;78.90;;;;;;5075451;28;20391;-74
2022/12/11 00:26:21;;;;;;;102.93;39.87;;;2.10;75.80;;;;;;5074971;28;20400;-74
2022/12/11 00:28:51;;;;;;;107.43;39.78;;;2.00;77.10;;;;;;5073330;28;20380;-74
2022/12/11 00:31:18;;;;;;;95.63;38.38;;;2.00;77.80;;;;;;5074826;28;20388;-73
2022/12/11 00:33:44;;;;;;;95.55;37.15;;;2.00;78.20;;;;;;5073553;28;20372;-73
2022/12/11 00:36:15;;;;;;;89.90;35.10;;;2.10;76.30;;;;;;5073486;28;20380;-73
2022/12/11 00:38:41;;;;;;;96.33;36.90;;;2.10;76.00;;;;;;5074210;28;20776;-75
2022/12/11 00:41:07;;;;;;;101.93;38.03;;;2.10;75.40;;;;;;5074689;28;20384;-73
2022/12/11 00:43:33;;;;;;;103.70;40.27;;;2.10;75.40;;;;;;5074603;28;20432;-74
2022/12/11 00:45:59;;;;;;;102.53;39.08;;;2.10;76.10;;;;;;5074189;28;20509;-75
2022/12/11 00:48:24;;;;;;;102.43;39.42;;;2.10;77.00;;;;;;5075078;28;20388;-74
2022/12/11 00:50:50;;;;;;;100.22;37.67;;;2.10;76.80;;;;;;5073951;28;20799;-74
2022/12/11 00:53:15;;;;;;;115.47;42.60;;;2.20;75.10;;;;;;5074227;28;20787;-75
2022/12/11 00:55:42;;;;;;;108.07;41.03;;;2.20;76.60;;;;;;5072984;28;20780;-74
2022/12/11 00:58:08;;;;;;;114.35;40.00;;;2.20;75.50;;;;;;5072785;28;20433;-75
2022/12/11 01:00:34;;;;;;;123.35;42.53;;;2.10;77.50;;;;;;5074153;28;20779;-76
2022/12/11 01:03:00;;;;;;;114.43;43.85;;;2.00;78.20;;;;;;5074227;28;20448;-74
2022/12/11 01:05:25;;;;;;;117.28;42.30;;;2.00;79.20;;;;;;5073472;28;20403;-74
2022/12/11 01:07:51;;;;;;;114.47;41.93;;;1.90;80.20;;;;;;5072470;28;20484;-74
2022/12/11 01:10:22;;;;;;;106.13;40.43;;;2.10;78.50;;;;;;5072743;28;20433;-74
2022/12/11 01:12:55;;;;;;;116.28;42.13;;;2.10;79.20;;;;;;5071781;28;20704;-74
2022/12/11 01:15:25;;;;;;;99.70;39.13;;;2.40;77.70;;;;;;5072180;28;20380;-75
2022/12/11 01:17:51;;;;;;;114.88;43.85;;;2.50;72.70;;;;;;5070113;28;20447;-74
2022/12/11 01:20:18;;;;;;;120.07;43.63;;;2.40;73.70;;;;;;5069804;28;20377;-74
2022/12/11 01:22:44;;;;;;;117.10;42.67;;;2.30;75.60;;;;;;5071293;28;20388;-74
2022/12/11 01:25:10;;;;;;;103.57;39.67;;;2.20;77.20;;;;;;5071498;28;20430;-73
2022/12/11 01:27:37;;;;;;;105.23;40.77;;;2.20;76.90;;;;;;5071147;28;20391;-74
2022/12/11 01:30:06;;;;;;;98.78;40.08;;;2.20;75.50;;;;;;5070886;28;20388;-73
2022/12/11 01:32:33;;;;;;;103.93;40.28;;;2.20;73.80;;;;;;5070532;28;20478;-73
2022/12/11 01:34:59;;;;;;;102.53;38.45;;;2.10;74.80;;;;;;5071070;28;20455;-73
2022/12/11 01:37:25;;;;;;;89.65;36.97;;;2.10;75.60;;;;;;5071449;28;20384;-73
2022/12/11 01:39:51;;;;;;;80.77;34.43;;;2.10;75.60;;;;;;5071357;28;20434;-73
2022/12/11 01:42:18;;;;;;;90.93;39.47;;;2.10;73.60;;;;;;5071395;28;20379;-74
2022/12/11 01:44:44;;;;;;;77.72;34.58;;;2.10;74.10;;;;;;5074877;28;20435;-74
2022/12/11 01:47:10;;;;;;;68.72;30.88;;;2.10;74.50;;;;;;5074438;28;20392;-74
2022/12/11 01:49:38;;;;;;;69.88;30.70;;;2.20;71.70;;;;;;5073788;28;20380;-74
2022/12/11 01:52:13;;;;;;;76.32;32.75;;;2.30;69.10;;;;;;5070632;28;20376;-74
2022/12/11 01:54:41;;;;;;;74.95;32.80;;;2.20;69.00;;;;;;5075767;28;20475;-74
2022/12/11 01:57:08;;;;;;;76.65;33.75;;;2.20;70.10;;;;;;5086602;28;20387;-75
2022/12/11 01:59:37;;;;;;;83.07;34.22;;;2.30;69.20;;;;;;5073498;28;20387;-74
2022/12/11 02:02:23;;;;;;;80.43;33.67;;;2.40;68.80;;;;;;5069668;28;20375;-74
2022/12/11 02:04:48;;;;;;;86.32;36.00;;;2.40;67.80;;;;;;5070664;28;20462;-74
2022/12/11 02:07:14;;;;;;;85.60;34.93;;;2.30;68.90;;;;;;5070349;28;20455;-74
2022/12/11 02:09:42;;;;;;;85.93;34.73;;;2.30;68.80;;;;;;5070539;28;20383;-74
2022/12/11 02:12:19;;;;;;;88.18;35.85;;;2.30;69.10;;;;;;5070079;28;20416;-74
2022/12/11 02:15:06;;;;;;;80.40;33.58;;;2.20;69.90;;;;;;5070121;28;20516;-74
2022/12/11 02:17:43;;;;;;;66.25;30.10;;;2.20;70.20;;;;;;5070165;28;20387;-74
2022/12/11 02:20:49;;;;;;;69.03;31.60;;;2.30;67.60;;;;;;5069846;28;20466;-73
2022/12/11 02:23:43;;;;;;;74.93;32.33;;;2.30;68.90;;;;;;5069247;28;20472;-74
2022/12/11 02:26:49;;;;;;;83.83;35.37;;;2.20;69.50;;;;;;5069620;28;20446;-74
2022/12/11 02:29:24;;;;;;;83.70;33.10;;;2.10;72.00;;;;;;5070620;28;20711;-73
2022/12/11 02:31:57;;;;;;;73.80;33.03;;;2.10;72.60;;;;;;5070987;28;20384;-75
2022/12/11 02:34:36;;;;;;;71.07;32.47;;;2.10;72.50;;;;;;5070745;28;20407;-74
2022/12/11 02:37:05;;;;;;;78.50;33.92;;;2.10;72.30;;;;;;5070907;28;20375;-72
2022/12/11 02:39:34;;;;;;;80.80;33.70;;;2.30;69.50;;;;;;5070546;28;20396;-73
2022/12/11 02:42:02;;;;;;;80.78;34.08;;;2.30;69.10;;;;;;5071373;28;20437;-74
2022/12/11 02:44:31;;;;;;;80.32;36.05;;;2.30;69.70;;;;;;5086026;28;20376;-74
2022/12/11 02:46:57;;;;;;;79.78;35.28;;;2.20;71.20;;;;;;5082915;28;20446;-74
2022/12/11 02:49:25;;;;;;;79.97;34.38;;;2.20;71.40;;;;;;5070107;28;20411;-74
2022/12/11 02:51:52;;;;;;;85.10;35.08;;;2.20;72.40;;;;;;5069176;28;20875;-73
2022/12/11 02:54:24;;;;;;;76.75;33.50;;;2.30;71.00;;;;;;5069962;28;20388;-73
2022/12/11 02:56:54;;;;;;;78.53;33.17;;;2.30;70.30;;;;;;5068596;28;20394;-74
2022/12/11 02:59:27;;;;;;;74.55;32.08;;;2.40;69.10;;;;;;5071072;28;20866;-74
2022/12/11 03:01:52;;;;;;;72.38;32.88;;;2.50;67.90;;;;;;5069832;28;20693;-73
2022/12/11 03:04:18;;;;;;;87.10;34.58;;;2.50;66.80;;;;;;5068622;28;20463;-73
2022/12/11 03:06:50;;;;;;;79.53;33.50;;;2.40;67.90;;;;;;5069810;28;20426;-74
2022/12/11 03:09:15;;;;;;;82.78;33.50;;;2.40;67.90;;;;;;5068466;28;20387;-74
2022/12/11 03:11:41;;;;;;;76.00;31.83;;;2.40;68.90;;;;;;5068919;28;20376;-73
2022/12/11 03:14:07;;;;;;;78.63;34.50;;;2.50;67.40;;;;;;5070882;28;20463;-73
2022/12/11 03:16:38;;;;;;;89.70;37.15;;;2.50;68.40;;;;;;5073624;28;20532;-74
2022/12/11 03:19:15;;;;;;;80.72;34.67;;;2.40;69.80;;;;;;5073358;28;20466;-73
2022/12/11 03:21:52;;;;;;;83.18;35.30;;;2.40;69.20;;;;;;5072988;28;20375;-74
2022/12/11 03:24:36;;;;;;;89.43;35.92;;;2.50;68.60;;;;;;5073302;28;20393;-75
2022/12/11 03:27:26;;;;;;;93.72;37.58;;;2.50;68.30;;;;;;5073202;28;20857;-74
2022/12/11 03:30:09;;;;;;;93.65;37.05;;;2.40;70.60;;;;;;5072608;28;20419;-72
2022/12/11 03:32:43;;;;;;;91.00;37.08;;;2.30;72.10;;;;;;5072124;28;20379;-74
2022/12/11 03:35:23;;;;;;;99.50;37.87;;;2.40;71.60;;;;;;5073148;28;20379;-74
2022/12/11 03:37:51;;;;;;;93.57;38.20;;;2.40;72.80;;;;;;5072953;28;20410;-74
2022/12/11 03:40:20;;;;;;;95.32;38.10;;;2.50;71.80;;;;;;5072828;28;20388;-74
2022/12/11 03:42:50;;;;;;;100.35;37.58;;;2.60;70.30;;;;;;5072349;28;20372;-74
2022/12/11 03:45:18;;;;;;;96.45;38.28;;;2.60;68.80;;;;;;5071364;28;20406;-73
2022/12/11 03:47:45;;;;;;;98.57;40.40;;;2.60;69.10;;;;;;5071419;28;20437;-73
2022/12/11 03:50:14;;;;;;;103.68;39.85;;;2.40;70.30;;;;;;5072938;28;20475;-74
2022/12/11 03:52:42;;;;;;;99.97;38.97;;;2.40;71.70;;;;;;5072746;28;20376;-74
2022/12/11 03:55:09;;;;;;;92.05;37.35;;;2.40;72.60;;;;;;5072950;28;20846;-74
2022/12/11 03:57:36;;;;;;;84.70;35.45;;;2.50;71.20;;;;;;5073114;28;20458;-74
2022/12/11 04:00:08;;;;;;;78.97;34.72;;;2.50;70.10;;;;;;5073399;28;20466;-74
2022/12/11 04:02:34;;;;;;;80.07;33.25;;;2.60;67.80;;;;;;5072183;28;20824;-74
2022/12/11 04:04:59;;;;;;;81.30;34.97;;;2.70;66.60;;;;;;5072731;28;20429;-74
2022/12/11 04:07:25;;;;;;;81.47;35.17;;;2.60;67.10;;;;;;5073257;28;20528;-74
2022/12/11 04:09:50;;;;;;;76.73;35.00;;;2.50;68.10;;;;;;5072842;28;20411;-73
2022/12/11 04:12:16;;;;;;;75.55;35.20;;;2.50;67.30;;;;;;5073693;28;20466;-74
2022/12/11 04:25:40;;;;;;;67.40;31.95;;;2.70;64.90;;;;;;5072666;28;20410;-73
2022/12/11 04:28:06;;;;;;;74.50;33.72;;;2.60;64.40;;;;;;5072043;28;20459;-74
2022/12/11 04:30:31;;;;;;;72.77;33.67;;;2.60;65.60;;;;;;5072284;28;20395;-73
2022/12/11 04:32:57;;;;;;;77.20;33.10;;;2.50;67.50;;;;;;5071499;28;20386;-73
2022/12/11 04:35:22;;;;;;;73.90;33.60;;;2.50;67.70;;;;;;5072095;28;20813;-73
2022/12/11 04:37:49;;;;;;;79.97;35.07;;;2.50;67.30;;;;;;5071537;28;20501;-73
2022/12/11 04:40:17;;;;;;;77.38;34.60;;;2.50;68.30;;;;;;5072157;28;20444;-74
2022/12/11 04:42:42;;;;;;;78.63;34.22;;;2.40;69.10;;;;;;5071859;28;20395;-75
2022/12/11 04:45:09;;;;;;;81.63;35.03;;;2.50;69.30;;;;;;5072122;28;20857;-75
2022/12/11 04:47:35;;;;;;;74.25;34.33;;;2.40;70.00;;;;;;5072025;28;20395;-74
2022/12/11 04:50:02;;;;;;;77.03;34.88;;;2.50;70.40;;;;;;5071605;28;20388;-75
2022/12/11 04:52:28;;;;;;;76.57;33.88;;;2.50;69.60;;;;;;5071365;28;20845;-73
2022/12/11 04:54:53;;;;;;;69.60;31.15;;;2.60;67.10;;;;;;5071437;28;20468;-74
2022/12/11 04:57:20;;;;;;;68.25;31.05;;;2.60;66.20;;;;;;5070948;28;20881;-73
2022/12/11 04:59:46;;;;;;;63.38;30.05;;;2.60;65.90;;;;;;5078930;28;20420;-73
2022/12/11 05:02:11;;;;;;;63.00;30.60;;;2.60;64.70;;;;;;5072771;28;20470;-73
2022/12/11 05:04:37;;;;;;;58.87;28.33;;;2.60;64.80;;;;;;5070706;28;20423;-73
2022/12/11 05:07:03;;;;;;;63.67;30.25;;;2.70;63.70;;;;;;5071013;28;20412;-73
2022/12/11 05:09:28;;;;;;;56.95;28.08;;;2.60;63.40;;;;;;5073626;28;20481;-73
2022/12/11 05:11:54;;;;;;;60.95;29.35;;;2.60;62.90;;;;;;5075415;28;20469;-73
2022/12/11 05:14:20;;;;;;;61.47;29.00;;;2.50;64.00;;;;;;5069249;28;20459;-72
2022/12/11 05:16:46;;;;;;;68.57;30.10;;;2.60;63.60;;;;;;5071761;28;20469;-72
2022/12/11 05:19:11;;;;;;;68.30;30.40;;;2.50;64.60;;;;;;5072435;28;20987;-72
2022/12/11 05:21:37;;;;;;;57.40;28.67;;;2.60;64.60;;;;;;5086127;28;20446;-72
2022/12/11 05:24:03;;;;;;;60.93;29.20;;;2.60;63.70;;;;;;5072059;28;20426;-74
2022/12/11 05:26:28;;;;;;;60.33;29.80;;;2.60;64.10;;;;;;5076837;28;20412;-75
2022/12/11 05:28:55;;;;;;;65.45;31.25;;;2.60;64.90;;;;;;5080311;28;20479;-73
2022/12/11 05:31:23;;;;;;;68.88;32.85;;;2.50;67.00;;;;;;5085710;28;20402;-74
2022/12/11 05:33:49;;;;;;;68.07;31.50;;;2.40;69.40;;;;;;5081587;28;20447;-74
2022/12/11 05:36:20;;;;;;;68.45;32.53;;;2.40;71.70;;;;;;5070673;28;20387;-73
2022/12/11 05:38:46;;;;;;;69.20;32.33;;;2.40;71.80;;;;;;5070251;28;20474;-73
2022/12/11 05:41:14;;;;;;;72.27;33.17;;;2.40;71.50;;;;;;5069563;28;20818;-73
2022/12/11 05:43:41;;;;;;;72.80;35.42;;;2.40;71.00;;;;;;5070355;28;20374;-72
2022/12/11 05:46:12;;;;;;;75.70;34.28;;;2.40;72.80;;;;;;5071029;28;20910;-72
2022/12/11 05:48:39;;;;;;;69.57;31.88;;;2.30;74.10;;;;;;5070562;28;20397;-72
2022/12/11 05:51:07;;;;;;;70.03;31.97;;;2.40;73.60;;;;;;5069673;28;20384;-73
2022/12/11 05:53:33;;;;;;;70.72;31.30;;;2.50;70.10;;;;;;5070339;28;20384;-73
2022/12/11 05:56:04;;;;;;;73.15;33.33;;;2.40;71.50;;;;;;5070171;28;20422;-72
2022/12/11 05:58:30;;;;;;;73.78;32.28;;;2.40;71.70;;;;;;5070124;28;20881;-72
2022/12/11 06:00:55;;;;;;;67.87;32.00;;;2.40;72.70;;;;;;5069576;28;20399;-74
2022/12/11 06:03:21;;;;;;;72.93;32.57;;;2.40;73.90;;;;;;5070115;28;20387;-72
2022/12/11 06:05:46;;;;;;;74.65;32.65;;;2.40;75.20;;;;;;5070342;28;20396;-72
2022/12/11 06:08:12;;;;;;;71.90;32.90;;;2.30;74.90;;;;;;5070175;28;20510;-73
2022/12/11 06:10:43;;;;;;;65.78;31.15;;;2.30;75.90;;;;;;5070314;28;20641;-72
2022/12/11 06:13:09;;;;;;;71.87;32.50;;;2.30;75.90;;;;;;5070405;28;20371;-72
2022/12/11 06:15:34;;;;;;;66.10;31.80;;;2.40;76.00;;;;;;5075770;28;20402;-71
2022/12/11 06:18:00;;;;;;;70.43;32.78;;;2.40;76.10;;;;;;5079239;28;20833;-71
2022/12/11 06:20:25;;;;;;;70.05;31.50;;;2.30;76.70;;;;;;5077867;28;20725;-72
2022/12/11 06:22:51;;;;;;;67.70;31.25;;;2.40;76.20;;;;;;5077661;28;20391;-72
2022/12/11 06:25:16;;;;;;;70.45;31.85;;;2.50;74.50;;;;;;5075944;28;20403;-72
2022/12/11 06:27:42;;;;;;;71.78;33.30;;;2.40;73.20;;;;;;5069451;28;20379;-72
2022/12/11 06:30:08;;;;;;;69.87;32.77;;;2.50;71.80;;;;;;5070211;28;20376;-72
2022/12/11 06:32:33;;;;;;;64.65;31.73;;;2.50;71.50;;;;;;5068464;28;20391;-72
2022/12/11 06:34:59;;;;;;;65.93;31.65;;;2.50;71.10;;;;;;5069333;28;20379;-72
2022/12/11 06:37:24;;;;;;;64.50;30.90;;;2.60;69.80;;;;;;5069407;28;20718;-72
2022/12/11 06:39:50;;;;;;;64.63;32.20;;;2.60;66.90;;;;;;5069493;28;20388;-72
2022/12/11 06:42:16;;;;;;;65.75;31.30;;;2.70;64.30;;;;;;5068643;28;20464;-73
2022/12/11 06:44:41;;;;;;;62.97;30.90;;;2.60;65.50;;;;;;5069310;28;20390;-73
2022/12/11 06:47:07;;;;;;;65.30;30.73;;;2.60;65.00;;;;;;5069262;28;20828;-72
2022/12/11 06:49:32;;;;;;;60.83;29.90;;;2.60;63.40;;;;;;5068623;28;20375;-73
2022/12/11 06:51:58;;;;;;;56.65;29.83;;;2.50;64.50;;;;;;5069189;28;20379;-73
2022/12/11 06:54:27;;;;;;;67.20;29.58;;;2.50;64.50;;;;;;5071287;28;20867;-73
2022/12/11 06:56:53;;;;;;;66.13;30.08;;;2.50;64.40;;;;;;5072789;28;20458;-72
2022/12/11 06:59:18;;;;;;;64.47;30.87;;;2.60;64.90;;;;;;5071081;28;20422;-73
2022/12/11 07:01:44;;;;;;;60.47;30.27;;;2.50;64.80;;;;;;5068627;28;20424;-72
2022/12/11 07:04:09;;;;;;;68.53;32.28;;;2.50;65.60;;;;;;5069208;28;20386;-73
2022/12/11 07:06:35;;;;;;;67.63;30.70;;;2.40;66.80;;;;;;5069132;28;20450;-73
2022/12/11 07:09:04;;;;;;;58.77;30.33;;;2.40;68.60;;;;;;5069149;28;20384;-72
2022/12/11 07:11:29;;;;;;;65.30;30.52;;;2.50;67.60;;;;;;5068478;28;20379;-72
2022/12/11 07:13:58;;;;;;;61.30;29.80;;;2.50;66.50;;;;;;5069115;28;20384;-73
2022/12/11 07:16:24;;;;;;;58.70;30.60;;;2.50;65.50;;;;;;5069107;28;20430;-73
2022/12/11 07:18:50;;;;;;;63.90;31.83;;;2.50;65.90;;;;;;5068707;28;20388;-72
2022/12/11 07:21:17;;;;;;;60.92;30.00;;;2.50;66.20;;;;;;5068391;28;20459;-73
2022/12/11 07:23:43;;;;;;;60.55;30.58;;;2.40;65.90;;;;;;5068800;28;20382;-72
2022/12/11 07:26:11;;;;;;;61.10;29.90;;;2.50;65.80;;;;;;5068724;28;20564;-72
2022/12/11 07:28:38;;;;;;;56.38;29.90;;;2.50;65.10;;;;;;5068540;28;20501;-72
2022/12/11 07:31:08;;;;;;;61.25;30.73;;;2.60;63.50;;;;;;5067847;28;20460;-72
2022/12/11 07:33:34;;;;;;;63.45;30.27;;;2.70;61.50;;;;;;5068550;28;20383;-72
2022/12/11 07:36:04;;;;;;;71.32;32.38;;;2.60;62.50;;;;;;5067291;28;20395;-72
2022/12/11 07:38:30;;;;;;;62.78;32.25;;;2.50;64.90;;;;;;5068575;28;20413;-72
2022/12/11 07:40:59;;;;;;;63.00;31.50;;;2.40;66.60;;;;;;5068171;28;20843;-72
2022/12/11 07:43:24;;;;;;;61.53;30.67;;;2.50;65.30;;;;;;5068801;28;20395;-73
2022/12/11 07:45:50;;;;;;;56.03;29.50;;;2.50;64.60;;;;;;5069013;28;20752;-74
2022/12/11 07:48:15;;;;;;;62.47;29.65;;;2.60;64.10;;;;;;5069131;28;20828;-73
2022/12/11 07:50:41;;;;;;;59.45;29.92;;;2.60;63.50;;;;;;5068902;28;20372;-73
2022/12/11 07:53:06;;;;;;;59.67;28.73;;;2.70;61.60;;;;;;5068423;28;20475;-72
2022/12/11 07:55:32;;;;;;;58.30;30.50;;;2.60;62.40;;;;;;5067755;28;20394;-72
2022/12/11 07:57:57;;;;;;;60.08;30.13;;;2.60;63.40;;;;;;5067704;28;20398;-73
2022/12/11 08:00:23;;;;;;;59.37;29.60;;;2.60;64.40;;;;;;5069292;28;20461;-73
2022/12/11 08:02:48;;;;;;;57.77;27.90;;;2.50;65.10;;;;;;5071463;28;20477;-72
2022/12/11 08:05:14;;;;;;;56.47;27.00;;;2.50;65.60;;;;;;5071883;28;20983;-72
2022/12/11 08:07:39;;;;;;;52.27;26.43;;;2.50;65.00;;;;;;5072044;28;20899;-72
2022/12/11 08:10:05;;;;;;;57.33;28.33;;;2.50;65.10;;;;;;5072915;28;20386;-73
2022/12/11 08:12:31;;;;;;;57.60;26.60;;;2.50;65.90;;;;;;5071667;28;20379;-73
2022/12/11 08:14:56;;;;;;;55.30;27.50;;;2.50;66.00;;;;;;5072069;28;20896;-72
2022/12/11 08:17:22;;;;;;;60.55;26.95;;;2.70;64.30;;;;;;5071978;28;20892;-72
2022/12/11 08:19:47;;;;;;;54.95;28.38;;;2.60;64.40;;;;;;5071926;28;20398;-72
2022/12/11 08:22:13;;;;;;;54.97;26.57;;;2.60;65.20;;;;;;5071480;28;20380;-72
2022/12/11 08:24:39;;;;;;;53.63;25.87;;;2.60;64.60;;;;;;5071988;28;20407;-72
2022/12/11 08:27:05;;;;;;;54.45;26.58;;;2.70;63.00;;;;;;5071660;28;20494;-73
2022/12/11 08:29:31;;;;;;;53.55;26.50;;;2.70;61.90;;;;;;5070310;28;20384;-73
2022/12/11 08:31:56;;;;;;;56.20;25.80;;;2.70;61.10;;;;;;5071257;28;20402;-72
2022/12/11 08:34:22;;;;;;;50.47;25.90;;;2.70;61.20;;;;;;5071684;28;20379;-73
2022/12/11 08:36:47;;;;;;;53.17;27.37;;;2.70;61.40;;;;;;5071884;28;20396;-73
2022/12/11 08:39:13;;;;;;;49.50;24.23;;;2.80;62.20;;;;;;5071602;28;20406;-72
2022/12/11 08:41:39;;;;;;;54.53;25.02;;;2.80;60.90;;;;;;5070620;28;20904;-72
2022/12/11 08:44:12;;;;;;;45.33;23.83;;;2.80;60.80;;;;;;5071507;28;20466;-71
2022/12/11 08:46:38;;;;;;;49.20;25.92;;;2.80;61.10;;;;;;5071684;28;20407;-72
2022/12/11 08:49:03;;;;;;;49.57;23.90;;;2.70;61.30;;;;;;5071655;28;20405;-72
2022/12/11 08:51:29;;;;;;;48.50;24.23;;;2.80;61.30;;;;;;5070988;28;20483;-73
2022/12/11 08:53:57;;;;;;;48.90;24.00;;;2.80;60.80;;;;;;5053650;28;20384;-72
2022/12/11 08:56:23;;;;;;;47.00;24.40;;;2.80;61.30;;;;;;5071415;28;20883;-72
2022/12/11 08:58:49;;;;;;;48.42;23.77;;;2.80;61.80;;;;;;5071002;28;20899;-71
2022/12/11 09:01:20;;;;;;;46.10;22.75;;;2.90;61.40;;;;;;5070394;28;20387;-72
2022/12/11 09:03:47;;;;;;;44.35;22.00;;;3.00;58.30;;;;;;5070773;28;20368;-72
2022/12/11 09:06:16;;;;;;;47.42;22.98;;;3.00;57.20;;;;;;5071272;28;20411;-71
2022/12/11 09:08:43;;;;;;;46.10;23.60;;;3.10;56.30;;;;;;5070935;28;20750;-72
2022/12/11 09:11:22;;;;;;;41.80;23.15;;;3.00;56.80;;;;;;5070473;28;20872;-72
2022/12/11 09:13:47;;;;;;;44.00;23.42;;;2.90;57.90;;;;;;5073041;28;20701;-72
2022/12/11 09:16:16;;;;;;;44.57;22.50;;;2.90;58.20;;;;;;5072755;28;20444;-72
2022/12/11 09:18:44;;;;;;;45.38;22.63;;;2.90;58.00;;;;;;5072760;28;20395;-73
2022/12/11 09:21:12;;;;;;;41.92;21.55;;;2.90;55.60;;;;;;5074933;28;20392;-72
2022/12/11 09:23:38;;;;;;;39.53;20.97;;;2.90;55.30;;;;;;5074325;28;20463;-72
2022/12/11 09:26:06;;;;;;;42.83;22.35;;;2.80;55.90;;;;;;5075581;28;20465;-72
2022/12/11 09:28:32;;;;;;;43.85;21.10;;;2.70;56.60;;;;;;5074368;28;20394;-73
2022/12/11 09:30:57;;;;;;;38.67;20.30;;;2.70;56.80;;;;;;5072661;28;20872;-72
2022/12/11 09:33:23;;;;;;;41.17;21.43;;;2.80;56.10;;;;;;5070951;28;20391;-72
2022/12/11 09:35:58;;;;;;;43.43;21.57;;;2.70;57.20;;;;;;5070661;28;20478;-72
2022/12/11 09:38:24;;;;;;;37.00;20.40;;;2.70;55.60;;;;;;5070427;28;20477;-71
2022/12/11 09:40:50;;;;;;;42.70;20.77;;;2.60;56.70;;;;;;5070163;28;20418;-72
2022/12/11 09:43:38;;;;;;;38.88;20.60;;;2.60;57.00;;;;;;5070438;28;20387;-72
2022/12/11 09:46:09;;;;;;;41.83;21.60;;;2.70;55.70;;;;;;5070201;28;20403;-71
2022/12/11 09:48:36;;;;;;;41.90;21.80;;;2.60;57.40;;;;;;5070167;28;20464;-71
2022/12/11 09:51:26;;;;;;;38.78;20.25;;;2.60;56.70;;;;;;5070164;28;20929;-71
2022/12/11 09:53:54;;;;;;;36.25;19.65;;;2.70;55.80;;;;;;5069706;28;20375;-71
2022/12/11 09:56:32;;;;;;;42.15;19.95;;;2.80;55.30;;;;;;5070306;28;20398;-72
2022/12/11 09:59:30;;;;;;;41.70;21.10;;;2.90;53.50;;;;;;5070134;28;20893;-72
2022/12/11 10:02:13;;;;;;;43.90;20.98;;;2.80;54.30;;;;;;5066936;28;20388;-71
2022/12/11 10:05:06;;;;;;;35.08;19.50;;;2.90;54.00;;;;;;5069705;28;20380;-72
2022/12/11 10:07:39;;;;;;;43.25;20.88;;;2.90;54.10;;;;;;5069989;28;20375;-73
2022/12/11 10:10:41;;;;;;;42.13;22.05;;;2.90;53.90;;;;;;5070151;28;20376;-73
2022/12/11 10:13:45;;;;;;;39.92;21.65;;;2.80;54.60;;;;;;5069505;28;20368;-72
2022/12/11 10:16:28;;;;;;;39.45;21.52;;;2.90;55.50;;;;;;5069903;28;20712;-73
2022/12/11 10:18:54;;;;;;;44.42;22.20;;;3.00;53.90;;;;;;5069733;28;20394;-72
2022/12/11 10:21:20;;;;;;;43.33;22.42;;;2.90;54.30;;;;;;5067957;28;20414;-72
2022/12/11 10:23:54;;;;;;;42.70;22.98;;;2.90;55.10;;;;;;5069273;28;20387;-72
2022/12/11 10:26:22;;;;;;;42.25;22.30;;;2.90;54.30;;;;;;5069870;28;20415;-72
2022/12/11 10:28:48;;;;;;;42.35;21.90;;;2.90;54.30;;;;;;5069769;28;20391;-72
2022/12/11 10:31:26;;;;;;;35.00;20.80;;;2.90;54.60;;;;;;5069060;28;20374;-73
2022/12/11 10:34:00;;;;;;;41.03;22.13;;;2.90;54.50;;;;;;5069718;28;20367;-72
2022/12/11 10:36:33;;;;;;;36.10;20.77;;;3.00;53.80;;;;;;5069926;28;20520;-73
2022/12/11 10:38:59;;;;;;;40.10;21.63;;;3.10;53.00;;;;;;5069805;28;20399;-71
2022/12/11 10:41:40;;;;;;;35.92;19.20;;;3.20;53.10;;;;;;5069354;28;20384;-71
2022/12/11 10:44:18;;;;;;;36.63;20.75;;;3.50;51.00;;;;;;5070095;28;20778;-71
2022/12/11 10:46:45;;;;;;;41.45;21.10;;;3.60;48.80;;;;;;5070041;28;20404;-70
2022/12/11 10:49:22;;;;;;;40.03;21.25;;;3.40;51.10;;;;;;5070510;28;20743;-72
2022/12/11 10:51:49;;;;;;;38.92;20.17;;;3.50;51.50;;;;;;5069285;28;20391;-72
2022/12/11 10:54:32;;;;;;;35.13;19.40;;;3.80;48.40;;;;;;5070336;28;20473;-70
2022/12/11 10:56:59;;;;;;;40.03;21.52;;;3.90;47.60;;;;;;5071258;28;20899;-72
2022/12/11 10:59:45;;;;;;;42.47;22.00;;;3.80;47.50;;;;;;5083606;28;20394;-72
2022/12/11 11:02:24;;;;;;;41.20;22.30;;;3.50;49.00;;;;;;5085944;28;20376;-72
2022/12/11 11:04:50;;;;;;;40.88;21.60;;;3.40;50.30;;;;;;5074691;28;20396;-71
2022/12/11 11:07:22;;;;;;;42.97;21.73;;;3.40;49.50;;;;;;5069753;28;20407;-72
2022/12/11 11:09:49;;;;;;;41.60;21.83;;;3.40;49.50;;;;;;5069891;28;20392;-72
2022/12/11 11:12:25;;;;;;;39.80;21.23;;;3.40;50.50;;;;;;5068052;28;20527;-72
2022/12/11 11:15:03;;;;;;;39.33;20.48;;;3.30;50.60;;;;;;5069988;28;20449;-72
2022/12/11 11:17:31;;;;;;;40.08;21.10;;;3.80;49.60;;;;;;5069862;28;20387;-71
2022/12/11 11:20:03;;;;;;;51.22;22.38;;;3.80;47.60;;;;;;5069654;28;20379;-72
2022/12/11 11:22:31;;;;;;;44.07;22.10;;;3.80;49.20;;;;;;5069348;28;20391;-72
2022/12/11 11:24:58;;;;;;;45.05;22.52;;;3.60;50.10;;;;;;5069732;28;20451;-72
2022/12/11 11:27:42;;;;;;;44.38;23.40;;;3.90;47.70;;;;;;5071620;28;20390;-73
2022/12/11 11:30:20;;;;;;;50.33;23.93;;;4.00;47.20;;;;;;5071278;28;20390;-72
2022/12/11 11:32:46;;;;;;;41.55;22.52;;;4.00;46.70;;;;;;5069415;28;20419;-73
2022/12/11 11:35:11;;;;;;;46.67;24.27;;;3.80;46.50;;;;;;5071669;28;20852;-73
2022/12/11 11:37:39;;;;;;;43.47;23.67;;;3.70;47.80;;;;;;5073723;28;20566;-72
2022/12/11 11:40:13;;;;;;;40.37;22.93;;;3.70;48.10;;;;;;5076577;28;20875;-72
2022/12/11 11:42:48;;;;;;;43.25;23.83;;;3.60;49.30;;;;;;5076611;28;21010;-71
2022/12/11 11:45:43;;;;;;;49.17;24.80;;;3.70;48.40;;;;;;5080999;28;20709;-71
2022/12/11 11:48:18;;;;;;;51.05;25.02;;;3.90;47.40;;;;;;5071073;28;20380;-72
2022/12/11 11:50:46;;;;;;;48.40;23.92;;;3.80;45.90;;;;;;5073629;28;20376;-74
2022/12/11 11:53:21;;;;;;;46.55;24.40;;;3.70;47.20;;;;;;5073089;28;20383;-72
2022/12/11 11:56:22;;;;;;;47.63;25.05;;;3.40;48.70;;;;;;5072967;28;20383;-72
2022/12/11 11:59:25;;;;;;;49.97;25.90;;;3.20;51.50;;;;;;5074757;28;20384;-71
2022/12/11 12:01:55;;;;;;;50.00;25.63;;;3.20;52.10;;;;;;5074640;28;20375;-72
2022/12/11 12:04:20;;;;;;;49.47;25.80;;;3.10;52.40;;;;;;5073756;28;20404;-72
2022/12/11 12:07:06;;;;;;;51.85;26.55;;;3.10;53.40;;;;;;5072876;28;20434;-72
2022/12/11 12:09:59;;;;;;;50.85;25.90;;;3.20;52.00;;;;;;5073115;28;20380;-73
2022/12/11 12:12:53;;;;;;;51.08;25.75;;;3.20;51.40;;;;;;5072255;28;20721;-72
2022/12/11 12:15:42;;;;;;;53.43;27.70;;;3.20;52.20;;;;;;5073090;28;20433;-72
2022/12/11 12:18:25;;;;;;;46.75;25.60;;;3.20;52.40;;;;;;5074113;28;20412;-72
2022/12/11 12:21:17;;;;;;;49.27;26.20;;;3.30;53.20;;;;;;5074489;28;20431;-72
2022/12/11 12:23:54;;;;;;;54.55;27.90;;;3.50;50.20;;;;;;5074644;28;20387;-72
2022/12/11 12:26:30;;;;;;;53.45;26.67;;;3.50;50.00;;;;;;5073167;28;20402;-72
2022/12/11 12:29:11;;;;;;;54.40;27.08;;;3.50;50.30;;;;;;5072782;28;20476;-71
2022/12/11 12:31:55;;;;;;;55.38;26.50;;;3.90;48.70;;;;;;5070945;28;20386;-72
2022/12/11 12:34:28;;;;;;;55.28;27.48;;;4.10;47.10;;;;;;5072882;28;20470;-71
2022/12/11 12:37:42;;;;;;;56.80;28.25;;;4.00;48.40;;;;;;5072491;28;20396;-71
2022/12/11 12:40:31;;;;;;;49.85;27.33;;;3.80;48.80;;;;;;5072289;28;20392;-73
2022/12/11 12:43:15;;;;;;;54.70;28.83;;;3.80;49.30;;;;;;5070383;28;20390;-72
2022/12/11 12:45:56;;;;;;;59.13;29.25;;;3.70;49.80;;;;;;5073274;28;20438;-72
2022/12/11 12:48:24;;;;;;;54.38;29.20;;;3.70;49.50;;;;;;5071652;28;20368;-72
2022/12/11 12:50:50;;;;;;;57.95;29.15;;;3.60;49.60;;;;;;5071794;28;20466;-71
2022/12/11 12:53:21;;;;;;;55.03;28.20;;;3.60;49.80;;;;;;5071651;28;20525;-72
2022/12/11 12:55:48;;;;;;;57.70;28.05;;;3.80;47.90;;;;;;5071276;28;20434;-73
2022/12/11 12:58:30;;;;;;;55.40;28.20;;;4.00;45.60;;;;;;5071744;28;20496;-72
2022/12/11 13:01:06;;;;;;;59.05;29.75;;;3.90;47.10;;;;;;5071669;28;20876;-73
2022/12/11 13:03:55;;;;;;;52.95;27.25;;;3.80;46.70;;;;;;5073682;28;20863;-72